createdAt,value
2023-05-02T00:02:17.656Z,2.50
2023-05-02T00:04:44.776Z,3.80
2023-05-02T00:07:11.948Z,3.15
2023-05-02T00:09:38.844Z,3.33
2023-05-02T00:12:05.868Z,3.53
2023-05-02T00:14:32.991Z,3.42
2023-05-02T00:16:59.794Z,3.50
2023-05-02T00:19:26.657Z,4.15
2023-05-02T00:21:53.377Z,4.07
2023-05-02T00:24:20.126Z,3.53
2023-05-02T00:26:46.922Z,5.05
2023-05-02T00:29:13.822Z,4.88
2023-05-02T00:31:41.326Z,4.65
2023-05-02T00:34:08.253Z,3.80
2023-05-02T00:36:35.018Z,3.58
2023-05-02T00:39:01.855Z,3.90
2023-05-02T00:41:28.630Z,3.95
2023-05-02T00:43:55.441Z,3.90
2023-05-02T00:46:22.318Z,3.80
2023-05-02T00:48:49.111Z,4.13
2023-05-02T00:51:15.788Z,4.50
2023-05-02T00:53:42.756Z,3.65
2023-05-02T00:56:12.329Z,4.20
2023-05-02T00:58:41.224Z,3.63
2023-05-02T01:01:20.134Z,4.78
2023-05-02T01:03:49.899Z,4.45
2023-05-02T01:06:40.466Z,4.70
2023-05-02T01:12:25.489Z,4.30
2023-05-02T01:14:55.264Z,4.50
2023-05-02T01:17:26.407Z,4.40
2023-05-02T01:19:58.620Z,5.22
2023-05-02T01:22:30.163Z,4.72
2023-05-02T01:25:21.382Z,5.32
2023-05-02T01:28:16.488Z,5.53
2023-05-02T01:30:46.662Z,5.63
2023-05-02T01:33:17.571Z,6.13
2023-05-02T01:35:46.480Z,5.30
2023-05-02T01:38:18.943Z,6.00
2023-05-02T01:40:47.055Z,5.78
2023-05-02T01:43:15.365Z,6.40
2023-05-02T01:45:45.397Z,5.85
2023-05-02T01:48:13.748Z,6.22
2023-05-02T01:50:43.977Z,6.05
2023-05-02T01:53:13.798Z,6.80
2023-05-02T01:55:44.604Z,6.22
2023-05-02T01:58:12.308Z,6.47
2023-05-02T02:00:39.836Z,6.85
2023-05-02T02:03:08.381Z,6.88
2023-05-02T02:05:37.067Z,6.35
2023-05-02T02:08:04.135Z,6.90
2023-05-02T02:10:40.383Z,6.90
2023-05-02T02:13:26.443Z,7.13
2023-05-02T02:16:01.135Z,7.28
2023-05-02T02:18:29.737Z,8.55
2023-05-02T02:20:59.297Z,10.30
2023-05-02T02:23:28.159Z,9.30
2023-05-02T02:25:56.477Z,10.48
2023-05-02T02:28:23.632Z,9.82
2023-05-02T02:30:50.787Z,10.52
2023-05-02T02:33:18.438Z,9.85
2023-05-02T02:35:52.744Z,9.68
2023-05-02T02:38:42.819Z,10.70
2023-05-02T02:41:15.415Z,9.50
2023-05-02T02:44:04.205Z,9.75
2023-05-02T02:46:51.291Z,10.13
2023-05-02T02:50:02.722Z,10.48
2023-05-02T02:53:09.335Z,10.60
2023-05-02T02:55:44.996Z,10.73
2023-05-02T02:58:14.590Z,10.20
2023-05-02T03:00:41.616Z,10.23
2023-05-02T03:03:09.685Z,11.07
2023-05-02T03:05:36.839Z,11.23
2023-05-02T03:08:03.722Z,11.38
2023-05-02T03:10:30.502Z,11.32
2023-05-02T03:12:57.310Z,11.05
2023-05-02T03:15:52.557Z,12.10
2023-05-02T03:18:19.544Z,11.00
2023-05-02T03:20:46.842Z,11.20
2023-05-02T03:23:13.617Z,11.45
2023-05-02T03:25:40.392Z,11.25
2023-05-02T03:28:07.115Z,11.10
2023-05-02T03:30:34.272Z,10.75
2023-05-02T03:33:01.838Z,9.60
2023-05-02T03:35:28.569Z,9.55
2023-05-02T03:37:55.233Z,9.30
2023-05-02T03:40:22.143Z,8.93
2023-05-02T03:42:48.934Z,5.68
2023-05-02T03:45:15.748Z,5.55
2023-05-02T03:47:42.526Z,5.25
2023-05-02T03:50:09.694Z,4.40
2023-05-02T03:52:36.524Z,4.13
2023-05-02T03:55:04.116Z,3.97
2023-05-02T03:57:30.903Z,3.53
2023-05-02T03:59:57.991Z,3.70
2023-05-02T04:02:25.462Z,3.10
2023-05-02T04:04:52.447Z,4.18
2023-05-02T04:07:19.744Z,3.05
2023-05-02T04:09:46.786Z,2.97
2023-05-02T04:12:15.812Z,2.65
2023-05-02T04:14:42.933Z,3.03
2023-05-02T04:17:09.804Z,2.95
2023-05-02T04:19:36.628Z,4.00
2023-05-02T04:22:03.653Z,3.25
2023-05-02T04:24:30.423Z,3.20
2023-05-02T04:26:57.134Z,3.33
2023-05-02T04:29:23.848Z,3.05
2023-05-02T04:31:51.700Z,3.78
2023-05-02T04:34:18.504Z,3.40
2023-05-02T04:36:45.882Z,2.67
2023-05-02T04:39:12.816Z,2.60
2023-05-02T04:41:39.576Z,3.97
2023-05-02T04:44:06.339Z,3.40
2023-05-02T04:46:33.101Z,3.38
2023-05-02T04:48:59.978Z,3.17
2023-05-02T04:51:27.970Z,3.38
2023-05-02T04:53:54.791Z,3.92
2023-05-02T04:56:21.987Z,3.85
2023-05-02T04:58:48.790Z,3.65
2023-05-02T05:01:15.545Z,3.45
2023-05-02T05:03:43.049Z,3.13
2023-05-02T05:06:09.902Z,3.17
2023-05-02T05:08:36.717Z,4.15
2023-05-02T05:11:05.203Z,3.30
2023-05-02T05:13:32.463Z,3.40
2023-05-02T05:15:59.256Z,3.58
2023-05-02T05:18:26.303Z,3.88
2023-05-02T05:20:53.082Z,3.45
2023-05-02T05:23:19.924Z,4.13
2023-05-02T05:25:46.747Z,2.78
2023-05-02T05:28:13.953Z,3.20
2023-05-02T05:30:40.664Z,3.63
2023-05-02T05:33:07.454Z,3.67
2023-05-02T05:35:34.331Z,4.30
2023-05-02T05:38:01.487Z,3.30
2023-05-02T05:40:28.282Z,3.17
2023-05-02T05:42:55.077Z,3.63
2023-05-02T05:45:22.642Z,2.78
2023-05-02T05:47:49.736Z,2.80
2023-05-02T05:50:16.686Z,2.40
2023-05-02T05:52:43.380Z,2.50
2023-05-02T05:55:10.413Z,2.72
2023-05-02T05:57:37.593Z,2.47
2023-05-02T06:00:04.861Z,2.40
2023-05-02T06:02:31.820Z,2.53
2023-05-02T06:04:58.765Z,2.78
2023-05-02T06:07:25.720Z,2.47
2023-05-02T06:09:52.664Z,2.10
2023-05-02T06:12:19.566Z,2.25
2023-05-02T06:14:46.339Z,2.45
2023-05-02T06:17:13.117Z,2.10
2023-05-02T06:19:39.948Z,2.30
2023-05-02T06:22:06.698Z,2.95
2023-05-02T06:24:33.505Z,2.88
2023-05-02T06:27:00.359Z,2.83
2023-05-02T06:29:27.137Z,2.75
2023-05-02T06:31:57.018Z,2.42
2023-05-02T06:34:23.943Z,2.78
2023-05-02T06:36:56.444Z,2.42
2023-05-02T06:39:23.276Z,2.30
2023-05-02T06:41:50.363Z,2.20
2023-05-02T06:44:17.398Z,2.83
2023-05-02T06:46:44.310Z,2.33
2023-05-02T06:49:11.304Z,1.65
2023-05-02T06:51:38.112Z,2.20
2023-05-02T06:54:04.828Z,2.55
2023-05-02T06:56:31.737Z,1.92
2023-05-02T06:58:58.590Z,1.95
2023-05-02T07:01:25.517Z,1.77
2023-05-02T07:03:52.752Z,2.25
2023-05-02T07:06:19.614Z,2.05
2023-05-02T07:08:46.326Z,2.05
2023-05-02T07:11:13.188Z,1.83
2023-05-02T07:13:39.939Z,2.28
2023-05-02T07:16:07.588Z,2.13
2023-05-02T07:18:34.472Z,1.83
2023-05-02T07:21:01.478Z,1.50
2023-05-02T07:23:28.386Z,1.85
2023-05-02T07:25:55.288Z,1.95
2023-05-02T07:28:22.018Z,2.55
2023-05-02T07:30:48.882Z,1.85
2023-05-02T07:33:15.836Z,2.17
2023-05-02T07:35:43.212Z,1.98
2023-05-02T07:38:10.154Z,2.08
2023-05-02T07:40:36.947Z,1.50
2023-05-02T07:43:03.723Z,1.88
2023-05-02T07:45:30.561Z,2.05
2023-05-02T07:47:57.425Z,1.70
2023-05-02T07:50:24.520Z,1.98
2023-05-02T07:52:51.539Z,2.13
2023-05-02T07:55:18.542Z,1.90
2023-05-02T07:57:45.425Z,1.80
2023-05-02T08:00:12.667Z,1.98
2023-05-02T08:02:39.522Z,2.30
2023-05-02T08:05:06.978Z,1.98
2023-05-02T08:07:35.889Z,2.17
2023-05-02T08:10:03.827Z,1.83
2023-05-02T08:12:30.974Z,1.95
2023-05-02T08:14:57.781Z,1.80
2023-05-02T08:17:29.299Z,1.80
2023-05-02T08:19:56.891Z,1.95
2023-05-02T08:22:23.754Z,1.75
2023-05-02T08:24:50.700Z,1.95
2023-05-02T08:27:17.416Z,1.40
2023-05-02T08:29:44.188Z,1.95
2023-05-02T08:32:11.013Z,1.48
2023-05-02T08:34:37.868Z,1.73
2023-05-02T08:37:12.064Z,1.85
2023-05-02T08:39:38.919Z,2.00
2023-05-02T08:42:07.702Z,1.63
2023-05-02T08:44:34.481Z,1.60
2023-05-02T08:47:03.135Z,1.95
2023-05-02T08:49:32.965Z,1.95
2023-05-02T08:52:00.658Z,1.55
2023-05-02T08:54:27.867Z,2.15
2023-05-02T08:56:54.925Z,1.85
2023-05-02T08:59:21.738Z,1.80
2023-05-02T09:01:58.621Z,1.75
2023-05-02T09:04:33.226Z,1.77
2023-05-02T09:06:59.893Z,1.58
2023-05-02T09:09:26.960Z,1.95
2023-05-02T09:11:53.819Z,1.70
2023-05-02T09:14:20.757Z,1.00
2023-05-02T09:16:47.878Z,1.58
2023-05-02T09:19:27.578Z,1.35
2023-05-02T09:22:01.423Z,1.30
2023-05-02T09:24:29.619Z,1.77
2023-05-02T09:27:03.453Z,1.48
2023-05-02T09:29:36.179Z,1.60
2023-05-02T09:32:04.343Z,1.50
2023-05-02T09:34:31.572Z,1.67
2023-05-02T09:36:58.732Z,1.40
2023-05-02T09:39:27.046Z,1.23
2023-05-02T09:41:54.308Z,1.98
2023-05-02T09:44:38.030Z,1.30
2023-05-02T09:47:06.839Z,1.40
2023-05-02T09:49:45.155Z,1.65
2023-05-02T09:52:17.344Z,1.33
2023-05-02T09:54:46.884Z,1.70
2023-05-02T09:57:14.131Z,2.38
2023-05-02T09:59:41.303Z,1.20
2023-05-02T10:02:11.439Z,1.20
2023-05-02T10:04:40.018Z,1.52
2023-05-02T10:07:10.420Z,2.17
2023-05-02T10:09:42.740Z,1.90
2023-05-02T10:12:09.906Z,1.80
2023-05-02T10:14:40.167Z,1.42
2023-05-02T10:17:21.560Z,2.15
2023-05-02T10:19:59.256Z,1.35
2023-05-02T10:24:53.936Z,1.40
2023-05-02T10:27:21.397Z,1.23
2023-05-02T10:29:51.440Z,1.48
2023-05-02T10:32:18.903Z,1.88
2023-05-02T10:34:47.551Z,1.45
2023-05-02T10:37:15.746Z,1.75
2023-05-02T10:39:42.548Z,1.42
2023-05-02T10:42:10.618Z,1.55
2023-05-02T10:44:39.768Z,1.70
2023-05-02T10:47:26.977Z,2.05
2023-05-02T10:49:59.995Z,1.40
2023-05-02T10:52:38.784Z,1.50
2023-05-02T10:55:25.469Z,1.85
2023-05-02T10:57:58.740Z,1.50
2023-05-02T11:00:27.298Z,1.92
2023-05-02T11:02:54.321Z,1.73
2023-05-02T11:05:23.281Z,1.67
2023-05-02T11:07:50.906Z,1.70
2023-05-02T11:10:17.706Z,1.42
2023-05-02T11:12:51.538Z,1.65
2023-05-02T11:15:38.421Z,2.67
2023-05-02T11:18:13.100Z,2.15
2023-05-02T11:20:41.794Z,1.55
2023-05-02T11:23:26.913Z,1.48
2023-05-02T11:26:00.398Z,1.65
2023-05-02T11:28:48.591Z,1.65
2023-05-02T11:31:27.727Z,1.75
2023-05-02T11:34:02.958Z,1.20
2023-05-02T11:36:30.877Z,2.25
2023-05-02T11:38:57.645Z,1.10
2023-05-02T11:41:39.251Z,1.40
2023-05-02T11:44:06.240Z,1.50
2023-05-02T11:46:33.738Z,1.63
2023-05-02T11:49:01.323Z,1.55
2023-05-02T11:51:28.096Z,1.38
2023-05-02T11:53:56.831Z,1.73
2023-05-02T11:56:24.817Z,1.70
2023-05-02T11:59:03.052Z,1.52
2023-05-02T12:01:30.281Z,1.50
2023-05-02T12:04:05.165Z,2.10
2023-05-02T12:06:32.264Z,1.40
2023-05-02T12:09:10.676Z,1.17
2023-05-02T12:11:38.549Z,1.58
2023-05-02T12:14:06.691Z,2.03
2023-05-02T12:16:33.998Z,1.60
2023-05-02T12:19:01.457Z,1.65
2023-05-02T12:21:30.155Z,1.58
2023-05-02T12:23:57.473Z,2.00
2023-05-02T12:26:29.414Z,1.50
2023-05-02T12:28:57.185Z,1.00
2023-05-02T12:31:24.251Z,1.75
2023-05-02T12:33:52.870Z,1.70
2023-05-02T12:36:19.912Z,1.30
2023-05-02T12:38:55.040Z,1.30
2023-05-02T12:41:32.834Z,1.75
2023-05-02T12:44:01.028Z,1.67
2023-05-02T12:46:31.793Z,1.48
2023-05-02T12:49:05.200Z,1.38
2023-05-02T12:51:33.142Z,1.52
2023-05-02T12:54:00.187Z,1.65
2023-05-02T12:56:32.845Z,2.28
2023-05-02T12:59:01.465Z,1.60
2023-05-02T13:01:28.944Z,1.70
2023-05-02T13:03:55.836Z,1.58
2023-05-02T13:06:22.699Z,1.73
2023-05-02T13:08:49.500Z,1.65
2023-05-02T13:11:16.257Z,1.75
2023-05-02T13:13:42.999Z,2.58
2023-05-02T13:16:09.821Z,1.55
2023-05-02T13:18:36.687Z,1.02
2023-05-02T13:21:04.972Z,1.73
2023-05-02T13:23:31.744Z,1.60
2023-05-02T13:25:58.988Z,1.67
2023-05-02T13:28:25.969Z,1.63
2023-05-02T13:30:52.892Z,1.75
2023-05-02T13:33:19.730Z,2.63
2023-05-02T13:35:46.607Z,1.75
2023-05-02T13:38:13.427Z,1.55
2023-05-02T13:40:40.095Z,1.30
2023-05-02T13:43:06.797Z,2.78
2023-05-02T13:45:33.847Z,2.03
2023-05-02T13:48:00.609Z,1.77
2023-05-02T13:50:27.404Z,1.92
2023-05-02T13:52:54.182Z,1.80
2023-05-02T13:55:21.093Z,1.52
2023-05-02T13:57:47.966Z,2.90
2023-05-02T14:00:14.961Z,1.67
2023-05-02T14:02:42.000Z,1.85
2023-05-02T14:05:09.117Z,1.67
2023-05-02T14:07:35.929Z,1.52
2023-05-02T14:10:02.877Z,2.47
2023-05-02T14:12:29.937Z,1.48
2023-05-02T14:14:56.683Z,2.05
2023-05-02T14:17:25.235Z,2.28
2023-05-02T14:19:52.125Z,1.63
2023-05-02T14:22:18.973Z,1.58
2023-05-02T14:24:45.822Z,1.85
2023-05-02T14:27:17.910Z,1.92
2023-05-02T14:29:45.939Z,1.60
2023-05-02T14:32:12.879Z,2.30
2023-05-02T14:34:40.507Z,1.90
2023-05-02T14:37:08.956Z,2.03
2023-05-02T14:39:36.914Z,1.90
2023-05-02T14:42:04.576Z,2.40
2023-05-02T14:44:32.014Z,1.70
2023-05-02T14:46:58.875Z,1.77
2023-05-02T14:49:25.792Z,1.60
2023-05-02T14:51:52.903Z,1.73
2023-05-02T14:54:20.458Z,1.80
2023-05-02T14:56:48.280Z,1.70
2023-05-02T14:59:15.204Z,2.10
2023-05-02T15:01:41.976Z,1.50
2023-05-02T15:04:09.080Z,1.85
2023-05-02T15:06:36.644Z,2.40
2023-05-02T15:09:04.801Z,1.63
2023-05-02T15:11:31.775Z,1.50
2023-05-02T15:13:59.557Z,1.85
2023-05-02T15:16:29.404Z,1.75
2023-05-02T15:18:56.232Z,1.90
2023-05-02T15:21:23.315Z,2.60
2023-05-02T15:23:50.142Z,1.95
2023-05-02T15:26:16.992Z,1.77
2023-05-02T15:28:43.816Z,1.65
2023-05-02T15:31:10.736Z,2.03
2023-05-02T15:33:37.719Z,1.75
2023-05-02T15:36:04.595Z,1.73
2023-05-02T15:38:31.307Z,2.13
2023-05-02T15:41:00.396Z,1.70
2023-05-02T15:43:27.639Z,1.42
2023-05-02T15:45:56.696Z,1.55
2023-05-02T15:48:26.711Z,1.40
2023-05-02T15:50:53.807Z,1.40
2023-05-02T15:53:23.985Z,1.70
2023-05-02T15:55:52.784Z,1.85
2023-05-02T15:58:19.816Z,1.45
2023-05-02T16:00:51.981Z,1.95
2023-05-02T16:03:19.102Z,2.08
2023-05-02T16:05:46.468Z,1.67
2023-05-02T16:08:13.931Z,1.60
2023-05-02T16:10:43.526Z,1.70
2023-05-02T16:13:10.650Z,1.60
2023-05-02T16:15:38.946Z,1.50
2023-05-02T16:18:06.018Z,1.67
2023-05-02T16:20:36.610Z,1.73
2023-05-02T16:23:04.201Z,2.10
2023-05-02T16:25:31.491Z,1.70
2023-05-02T16:27:58.329Z,1.73
2023-05-02T16:30:25.267Z,1.40
2023-05-02T16:32:52.040Z,1.33
2023-05-02T16:35:19.988Z,1.40
2023-05-02T16:37:47.575Z,1.70
2023-05-02T16:40:14.460Z,2.05
2023-05-02T16:42:41.505Z,1.33
2023-05-02T16:45:08.721Z,1.50
2023-05-02T16:47:36.261Z,1.77
2023-05-02T16:50:03.567Z,1.20
2023-05-02T16:52:30.969Z,1.60
2023-05-02T16:54:57.776Z,1.52
2023-05-02T16:57:24.545Z,1.80
2023-05-02T16:59:52.511Z,1.70
2023-05-02T17:02:22.772Z,1.25
2023-05-02T17:04:50.375Z,2.08
2023-05-02T17:07:17.618Z,1.45
2023-05-02T17:09:44.724Z,1.48
2023-05-02T17:12:12.497Z,1.60
2023-05-02T17:14:42.525Z,1.50
2023-05-02T17:17:10.034Z,1.65
2023-05-02T17:19:37.297Z,1.75
2023-05-02T17:22:05.152Z,1.60
2023-05-02T17:24:32.994Z,1.83
2023-05-02T17:27:00.908Z,1.60
2023-05-02T17:29:27.872Z,1.52
2023-05-02T17:31:57.340Z,1.40
2023-05-02T17:34:28.460Z,1.38
2023-05-02T17:36:55.948Z,2.38
2023-05-02T17:39:23.373Z,1.38
2023-05-02T17:41:50.409Z,1.83
2023-05-02T17:44:17.239Z,1.80
2023-05-02T17:46:44.026Z,2.00
2023-05-02T17:49:10.990Z,1.45
2023-05-02T17:51:37.837Z,1.65
2023-05-02T17:54:04.793Z,1.70
2023-05-02T17:56:34.468Z,1.55
2023-05-02T17:59:02.010Z,1.60
2023-05-02T18:01:28.776Z,1.33
2023-05-02T18:03:55.631Z,1.85
2023-05-02T18:06:22.748Z,1.50
2023-05-02T18:08:49.609Z,1.67
2023-05-02T18:11:18.306Z,1.40
2023-05-02T18:13:45.806Z,1.63
2023-05-02T18:16:14.123Z,1.52
2023-05-02T18:18:41.688Z,1.60
2023-05-02T18:21:12.028Z,1.10
2023-05-02T18:23:40.105Z,1.35
2023-05-02T18:26:13.186Z,1.55
2023-05-02T18:28:42.716Z,1.85
2023-05-02T18:31:17.544Z,1.83
2023-05-02T18:33:45.742Z,1.52
2023-05-02T18:36:13.585Z,1.30
2023-05-02T18:38:41.992Z,1.60
2023-05-02T18:41:09.400Z,1.60
2023-05-02T18:43:36.376Z,1.77
2023-05-02T18:46:03.313Z,1.50
2023-05-02T18:48:30.309Z,1.48
2023-05-02T18:50:57.632Z,1.92
2023-05-02T18:53:26.344Z,2.28
2023-05-02T18:55:56.438Z,1.92
2023-05-02T18:58:24.141Z,1.90
2023-05-02T19:00:51.670Z,1.67
2023-05-02T19:03:19.030Z,2.15
2023-05-02T19:05:45.918Z,2.75
2023-05-02T19:08:12.881Z,1.60
2023-05-02T19:10:40.124Z,2.20
2023-05-02T19:13:07.097Z,1.75
2023-05-02T19:15:34.195Z,1.80
2023-05-02T19:18:01.208Z,1.30
2023-05-02T19:20:29.438Z,1.98
2023-05-02T19:23:14.735Z,1.40
2023-05-02T19:25:44.099Z,2.25
2023-05-02T19:28:12.239Z,2.35
2023-05-02T19:30:43.042Z,1.63
2023-05-02T19:33:09.955Z,1.77
2023-05-02T19:35:36.870Z,1.63
2023-05-02T19:38:03.649Z,1.67
2023-05-02T19:40:31.034Z,2.08
2023-05-02T19:42:58.022Z,2.20
2023-05-02T19:45:24.972Z,2.13
2023-05-02T19:47:52.758Z,2.08
2023-05-02T19:50:19.824Z,2.45
2023-05-02T19:52:46.705Z,1.45
2023-05-02T19:55:13.796Z,1.70
2023-05-02T19:57:41.353Z,2.05
2023-05-02T20:00:08.710Z,2.30
2023-05-02T20:02:35.616Z,2.13
2023-05-02T20:05:02.369Z,1.58
2023-05-02T20:07:29.151Z,2.10
2023-05-02T20:09:56.312Z,1.25
2023-05-02T20:12:23.135Z,1.75
2023-05-02T20:14:49.977Z,1.92
2023-05-02T20:17:16.856Z,1.42
2023-05-02T20:19:45.311Z,1.80
2023-05-02T20:22:12.160Z,1.58
2023-05-02T20:24:39.006Z,1.77
2023-05-02T20:27:05.759Z,1.67
2023-05-02T20:29:32.622Z,1.23
2023-05-02T20:31:59.496Z,1.17
2023-05-02T20:34:26.791Z,1.90
2023-05-02T20:36:54.277Z,1.75
2023-05-02T20:39:22.116Z,1.25
2023-05-02T20:41:49.686Z,1.27
2023-05-02T20:44:17.599Z,1.42
2023-05-02T20:46:44.321Z,1.10
2023-05-02T20:49:11.205Z,1.50
2023-05-02T20:51:38.045Z,1.33
2023-05-02T20:54:05.171Z,1.95
2023-05-02T20:56:31.816Z,1.63
2023-05-02T20:58:58.631Z,1.42
2023-05-02T21:01:26.411Z,1.35
2023-05-02T21:03:53.306Z,1.58
2023-05-02T21:06:22.848Z,1.52
2023-05-02T21:08:49.844Z,2.17
2023-05-02T21:11:16.572Z,1.80
2023-05-02T21:13:43.808Z,1.60
2023-05-02T21:16:18.712Z,1.45
2023-05-02T21:18:48.836Z,2.15
2023-05-02T21:21:15.675Z,1.60
2023-05-02T21:23:42.355Z,1.75
2023-05-02T21:26:09.184Z,2.45
2023-05-02T21:28:37.986Z,2.03
2023-05-02T21:31:06.003Z,2.13
2023-05-02T21:33:32.768Z,1.33
2023-05-02T21:35:59.927Z,1.75
2023-05-02T21:38:26.971Z,1.88
2023-05-02T21:40:53.994Z,1.83
2023-05-02T21:43:20.922Z,1.70
2023-05-02T21:45:49.474Z,2.05
2023-05-02T21:48:17.109Z,1.15
2023-05-02T21:50:44.857Z,2.10
2023-05-02T21:53:13.692Z,2.13
2023-05-02T21:55:41.089Z,1.70
2023-05-02T21:58:09.527Z,2.17
2023-05-02T22:00:41.022Z,2.42
2023-05-02T22:03:11.565Z,2.08
2023-05-02T22:05:41.841Z,1.48
2023-05-02T22:08:13.375Z,1.80
2023-05-02T22:10:42.480Z,2.13
2023-05-02T22:13:14.248Z,2.15
2023-05-02T22:15:47.810Z,1.52
2023-05-02T22:18:15.827Z,1.52
2023-05-02T22:20:44.102Z,2.38
2023-05-02T22:23:11.596Z,1.40
2023-05-02T22:25:41.382Z,1.73
2023-05-02T22:28:11.357Z,1.50
2023-05-02T22:30:39.515Z,1.88
2023-05-02T22:33:07.405Z,1.52
2023-05-02T22:35:34.375Z,1.50
2023-05-02T22:38:02.294Z,1.88
2023-05-02T22:40:32.977Z,2.05
2023-05-02T22:43:00.895Z,1.80
2023-05-02T22:45:27.929Z,2.15
2023-05-02T22:47:55.791Z,1.48
2023-05-02T22:50:22.628Z,1.65
2023-05-02T22:52:49.506Z,1.83
2023-05-02T22:55:16.368Z,1.70
2023-05-02T22:57:43.350Z,1.33
2023-05-02T23:00:11.093Z,1.90
2023-05-02T23:02:38.277Z,1.92
2023-05-02T23:05:06.479Z,2.08
2023-05-02T23:07:33.358Z,1.60
2023-05-02T23:10:01.089Z,2.35
2023-05-02T23:12:29.001Z,1.90
2023-05-02T23:14:55.860Z,1.83
2023-05-02T23:17:23.230Z,1.75
2023-05-02T23:19:50.526Z,2.28
2023-05-02T23:22:17.446Z,1.98
2023-05-02T23:24:46.339Z,2.22
2023-05-02T23:27:13.170Z,1.55
2023-05-02T23:29:39.990Z,1.95
2023-05-02T23:32:08.064Z,1.80
2023-05-02T23:34:38.335Z,2.10
2023-05-02T23:37:06.948Z,2.25
2023-05-02T23:39:34.411Z,1.70
2023-05-02T23:42:03.526Z,1.73
2023-05-02T23:44:31.285Z,2.72
2023-05-02T23:47:01.458Z,1.45
2023-05-02T23:49:28.395Z,2.15
2023-05-02T23:51:55.139Z,1.80
2023-05-02T23:54:22.055Z,2.00
2023-05-02T23:56:48.811Z,1.90
2023-05-02T23:59:15.680Z,2.30
